Margaret — WDC3267 — position and weather

sailwx.info

Track history (hours):
 
Tides and Currents Weather Stations Pressure Air Temp Water Temp Dewpoint Dewpoint Depression Visibility Wind Speed Wind Dir Waves Ship Positions

Margaret

More information available from US FCC via Universal Licensing System and Coast Guard Vessel Documentation Center.

Last reported at 2014-Jul-13 23:25 UTC. Time now 2014-Jul-26 13:09 UTC.
Position N 30°24' W 086°54'.
Warning: this ship's position is 12 days out of date.

; draft 9 m.

Type: Towing. MMSI: 367004940.

Date/timePositionNaut miles runAvg speedWind from/ knotsBaromVisibWave heightAir tempDewpointWater temp
2014-Jul-13 23:25N 30°24' W 086°54'5 5.6
2014-Jul-13 22:33N 30°24' W 086°49'11 4.9
2014-Jul-13 20:12N 30°24' W 086°35'3 4.3
2014-Jul-13 19:33N 30°25' W 086°32'3 3.2
2014-Jul-13 18:32N 30°26' W 086°29'6 6.0
2014-Jul-13 17:33N 30°26' W 086°22'8 0.3
2014-Jul-12 14:33N 30°26' W 086°13'6 6.4
2014-Jul-12 13:33N 30°26' W 086°20'6 6.4
2014-Jul-12 12:33N 30°26' W 086°27'7 6.3
2014-Jul-12 11:27N 30°24' W 086°35'8 5.7
2014-Jul-12 10:03N 30°24' W 086°44'4 6.0
2014-Jul-12 09:23N 30°24' W 086°49'6 6.3
2014-Jul-12 08:26N 30°23' W 086°56'  
Track history (hours):
 
Tides and Currents Weather Stations Pressure Air Temp Water Temp Dewpoint Dewpoint Depression Visibility Wind Speed Wind Dir Waves Ship Positions

Margaret

More information available from US FCC via Universal Licensing System and Coast Guard Vessel Documentation Center.

Last reported at 2014-Jul-13 23:25 UTC. Time now 2014-Jul-26 13:09 UTC.
Position N 30°24' W 086°54'.
Warning: this ship's position is 12 days out of date.

; draft 9 m.

Type: Towing. MMSI: 367004940.

Date/timePositionNaut miles runAvg speedWind from/ knotsBaromVisibWave heightAir tempDewpointWater temp
2014-Jul-13 23:25N 30°24' W 086°54'5 5.6
2014-Jul-13 22:33N 30°24' W 086°49'11 4.9
2014-Jul-13 20:12N 30°24' W 086°35'3 4.3
2014-Jul-13 19:33N 30°25' W 086°32'3 3.2
2014-Jul-13 18:32N 30°26' W 086°29'6 6.0
2014-Jul-13 17:33N 30°26' W 086°22'8 0.3
2014-Jul-12 14:33N 30°26' W 086°13'6 6.4
2014-Jul-12 13:33N 30°26' W 086°20'6 6.4
2014-Jul-12 12:33N 30°26' W 086°27'7 6.3
2014-Jul-12 11:27N 30°24' W 086°35'8 5.7
2014-Jul-12 10:03N 30°24' W 086°44'4 6.0
2014-Jul-12 09:23N 30°24' W 086°49'6 6.3
2014-Jul-12 08:26N 30°23' W 086°56'  

Dump ship's entire track history